Time;durP1;ratioP1;P1;durP2;ratioP2;P2;SDS_P1;SDS_P2;PMS_P1;PMS_P2;Temp;Humidity;BMP_temperature;BMP_pressure;BME280_temperature;BME280_humidity;BME280_pressure;Samples;Min_cycle;Max_cycle;Signal;HPM_P1;HPM_P2
2023/05/07 00:00:27;;;;;;;6.80;1.80;;;;;;;8.60;91.20;100688.72;110775;1271;22446;-62
2023/05/07 00:03:18;;;;;;;8.60;2.30;;;;;;;8.61;91.25;100687.73;110684;1266;22908;-61
2023/05/07 00:05:50;;;;;;;10.90;2.20;;;;;;;8.62;91.13;100684.77;110768;1266;22296;-61
2023/05/07 00:08:21;;;;;;;6.00;1.60;;;;;;;8.63;91.16;100686.54;110736;1256;22691;-61
2023/05/07 00:10:52;;;;;;;8.70;1.90;;;;;;;8.64;91.04;100685.34;110742;1266;23337;-61
2023/05/07 00:13:23;;;;;;;8.20;2.30;;;;;;;8.66;91.25;100685.27;110765;1266;22392;-61
2023/05/07 00:15:53;;;;;;;7.50;1.80;;;;;;;8.67;91.02;100688.20;110740;1257;22224;-64
2023/05/07 00:18:24;;;;;;;5.90;1.70;;;;;;;8.69;90.95;100689.92;110786;1272;23800;-61
2023/05/07 00:20:56;;;;;;;9.70;1.90;;;;;;;8.69;90.88;100690.69;110697;1261;22331;-61
2023/05/07 00:23:27;;;;;;;5.90;1.50;;;;;;;8.68;90.80;100695.60;110750;1266;22411;-61
2023/05/07 00:25:58;;;;;;;6.80;1.90;;;;;;;8.63;90.88;100694.80;110691;1266;22448;-62
2023/05/07 00:28:31;;;;;;;6.40;1.50;;;;;;;8.63;90.90;100696.15;110776;1267;22154;-61
2023/05/07 00:31:01;;;;;;;6.30;1.60;;;;;;;8.63;90.87;100695.60;110737;1257;22167;-62
2023/05/07 00:33:32;;;;;;;5.50;1.40;;;;;;;8.61;90.84;100697.35;110772;1272;22310;-61
2023/05/07 00:36:03;;;;;;;7.00;1.90;;;;;;;8.62;90.99;100695.31;110782;1266;22982;-61
2023/05/07 00:38:34;;;;;;;8.00;1.70;;;;;;;8.63;90.90;100696.40;110720;1265;22362;-61
2023/05/07 00:41:05;;;;;;;6.30;1.60;;;;;;;8.62;90.98;100700.33;110819;1257;22861;-60
2023/05/07 00:43:36;;;;;;;6.40;1.50;;;;;;;8.63;90.78;100700.23;110734;1264;22408;-60
2023/05/07 00:46:07;;;;;;;7.00;2.00;;;;;;;8.62;90.95;100703.27;110752;1256;22372;-59
2023/05/07 00:48:38;;;;;;;5.60;1.50;;;;;;;8.63;90.86;100704.52;110716;1265;22461;-60
2023/05/07 00:51:11;;;;;;;7.60;1.80;;;;;;;8.62;90.76;100709.33;106794;1256;24390;-60
2023/05/07 00:53:42;;;;;;;8.80;1.90;;;;;;;8.63;90.84;100702.86;106750;1256;22640;-60
2023/05/07 00:56:13;;;;;;;6.40;1.50;;;;;;;8.61;90.84;100704.89;110704;1266;22362;-59
2023/05/07 00:58:44;;;;;;;6.50;1.50;;;;;;;8.61;90.79;100708.23;110787;1265;22229;-59
2023/05/07 01:01:16;;;;;;;8.00;1.90;;;;;;;8.60;90.79;100712.68;110708;1266;22203;-60
2023/05/07 01:03:47;;;;;;;8.60;2.00;;;;;;;8.59;90.77;100711.13;110753;1266;22340;-60
2023/05/07 01:06:19;;;;;;;7.90;2.20;;;;;;;8.59;91.00;100708.89;110794;1272;22832;-60
2023/05/07 01:08:52;;;;;;;6.90;1.70;;;;;;;8.59;90.85;100707.39;110801;1256;22254;-59
2023/05/07 01:11:25;;;;;;;8.30;1.80;;;;;;;8.55;90.76;100706.58;110759;1265;22253;-60
2023/05/07 01:13:57;;;;;;;6.50;2.20;;;;;;;8.50;90.94;100707.23;110744;1261;23039;-60
2023/05/07 01:16:28;;;;;;;6.20;2.10;;;;;;;8.52;91.00;100713.67;110712;1260;22385;-60
2023/05/07 01:18:59;;;;;;;7.00;2.10;;;;;;;8.51;90.86;100712.68;110720;1256;22138;-59
2023/05/07 01:21:34;;;;;;;7.00;1.90;;;;;;;8.50;91.02;100712.46;110739;1272;22311;-60
2023/05/07 01:24:06;;;;;;;6.80;1.90;;;;;;;8.51;91.16;100715.56;110730;1272;22197;-60
2023/05/07 01:26:37;;;;;;;7.80;1.80;;;;;;;8.52;91.03;100715.91;110797;1256;22397;-60
2023/05/07 01:29:08;;;;;;;8.30;2.30;;;;;;;8.49;91.05;100711.34;110758;1256;22318;-60
2023/05/07 01:31:41;;;;;;;8.00;2.20;;;;;;;8.49;91.15;100708.86;110720;1256;22408;-60
2023/05/07 01:34:13;;;;;;;10.80;3.20;;;;;;;8.50;91.04;100707.64;110730;1256;22211;-60
2023/05/07 01:36:46;;;;;;;9.00;2.00;;;;;;;8.50;91.07;100709.53;110735;1256;22380;-60
2023/05/07 01:39:17;;;;;;;9.60;2.80;;;;;;;8.48;91.10;100709.45;110773;1272;22252;-60
2023/05/07 01:41:49;;;;;;;11.50;2.30;;;;;;;8.48;90.96;100714.15;110801;1266;23310;-60
2023/05/07 01:44:20;;;;;;;6.70;1.90;;;;;;;8.49;90.99;100717.31;110770;1266;22206;-60
2023/05/07 01:46:52;;;;;;;11.70;2.50;;;;;;;8.49;90.89;100720.46;110777;1256;22212;-60
2023/05/07 01:49:22;;;;;;;9.30;2.00;;;;;;;8.49;90.88;100718.95;110737;1266;22200;-60
2023/05/07 01:51:54;;;;;;;10.80;2.70;;;;;;;8.48;90.79;100721.71;110789;1266;22296;-60
2023/05/07 01:54:29;;;;;;;13.40;2.90;;;;;;;8.45;90.68;100718.39;110763;1272;22415;-60
2023/05/07 01:57:00;;;;;;;6.30;1.90;;;;;;;8.45;90.70;100716.88;110797;1266;22297;-60
2023/05/07 01:59:30;;;;;;;9.30;2.20;;;;;;;8.44;90.63;100723.17;110789;1265;22502;-60
2023/05/07 02:02:01;;;;;;;9.00;1.80;;;;;;;8.43;90.70;100721.16;110751;1266;22416;-60
2023/05/07 02:04:32;;;;;;;7.30;2.20;;;;;;;8.43;90.69;100719.74;110705;1266;22151;-60
2023/05/07 02:07:04;;;;;;;5.20;1.60;;;;;;;8.45;90.72;100721.79;110749;1257;22232;-60
2023/05/07 02:09:34;;;;;;;7.40;2.10;;;;;;;8.44;90.48;100720.64;110773;1266;22384;-60
2023/05/07 02:12:06;;;;;;;8.50;1.90;;;;;;;8.44;90.39;100724.38;110686;1272;22149;-60
2023/05/07 02:14:37;;;;;;;6.40;1.80;;;;;;;8.44;90.44;100728.44;108717;1266;22564;-60
2023/05/07 02:17:08;;;;;;;8.30;2.00;;;;;;;8.42;90.42;100729.16;106773;1260;26358;-58
2023/05/07 02:19:41;;;;;;;10.60;2.50;;;;;;;8.40;90.45;100729.21;110733;1260;22230;-59
2023/05/07 02:22:12;;;;;;;7.00;2.00;;;;;;;8.40;90.47;100727.48;107350;1256;22588;-59
2023/05/07 02:24:44;;;;;;;6.40;2.10;;;;;;;8.37;90.41;100727.77;110729;1264;22381;-60
2023/05/07 02:27:15;;;;;;;7.60;2.20;;;;;;;8.34;90.46;100728.16;110735;1266;22660;-60
2023/05/07 02:29:46;;;;;;;7.40;1.80;;;;;;;8.34;90.52;100726.66;110796;1266;22230;-59
2023/05/07 02:32:17;;;;;;;10.10;2.40;;;;;;;8.32;90.37;100722.54;110760;1265;22177;-59
2023/05/07 02:34:47;;;;;;;12.30;3.40;;;;;;;8.32;90.54;100728.47;110740;1266;23272;-60
2023/05/07 02:37:18;;;;;;;8.80;1.70;;;;;;;8.34;90.41;100734.54;110730;1266;22424;-60
2023/05/07 02:39:49;;;;;;;10.30;2.40;;;;;;;8.28;90.19;100734.77;110709;1266;22346;-60
2023/05/07 02:42:20;;;;;;;8.90;2.30;;;;;;;8.25;90.28;100735.10;110762;1272;22364;-60
2023/05/07 02:44:51;;;;;;;12.50;2.60;;;;;;;8.25;90.22;100734.38;110797;1266;22156;-60
2023/05/07 02:47:22;;;;;;;7.10;1.90;;;;;;;8.23;90.27;100736.56;110777;1265;22130;-59
2023/05/07 02:49:53;;;;;;;9.00;2.30;;;;;;;8.22;90.05;100737.09;110718;1266;23203;-60
2023/05/07 02:52:24;;;;;;;7.10;1.80;;;;;;;8.18;90.11;100740.70;110743;1269;22167;-59
2023/05/07 02:54:55;;;;;;;8.40;2.30;;;;;;;8.16;90.10;100744.51;110740;1257;22243;-60
2023/05/07 02:57:25;;;;;;;8.00;1.90;;;;;;;8.16;90.05;100748.27;110730;1272;22243;-59
2023/05/07 02:59:56;;;;;;;9.50;2.20;;;;;;;8.14;90.11;100746.86;110717;1260;22251;-60
2023/05/07 03:02:27;;;;;;;9.70;2.20;;;;;;;8.17;90.33;100750.11;110716;1266;22359;-60
2023/05/07 03:04:58;;;;;;;9.70;2.50;;;;;;;8.20;90.13;100752.41;110813;1260;22162;-61
2023/05/07 03:07:29;;;;;;;6.80;1.90;;;;;;;8.22;89.97;100748.28;110725;1266;22202;-61
2023/05/07 03:10:00;;;;;;;10.90;2.20;;;;;;;8.22;90.03;100748.13;110703;1265;22272;-61
2023/05/07 03:12:31;;;;;;;11.70;2.80;;;;;;;8.22;90.02;100750.83;110745;1272;22121;-60
2023/05/07 03:15:02;;;;;;;8.10;2.40;;;;;;;8.25;89.89;100753.60;110781;1256;22182;-61
2023/05/07 03:17:33;;;;;;;8.20;2.50;;;;;;;8.23;89.85;100760.47;110784;1266;22487;-61
2023/05/07 03:20:04;;;;;;;10.30;2.50;;;;;;;8.24;90.02;100758.86;110781;1260;22262;-61
2023/05/07 03:22:35;;;;;;;13.60;2.70;;;;;;;8.25;89.85;100757.27;110730;1265;22312;-60
2023/05/07 03:25:07;;;;;;;11.00;2.80;;;;;;;8.25;89.84;100761.24;110692;1266;23159;-60
2023/05/07 03:27:39;;;;;;;7.80;2.00;;;;;;;8.26;89.78;100763.52;110729;1265;22442;-61
2023/05/07 03:30:12;;;;;;;9.60;2.40;;;;;;;8.25;89.64;100766.25;110753;1272;22141;-61
2023/05/07 03:32:43;;;;;;;6.50;2.00;;;;;;;8.24;89.84;100765.52;110791;1266;22143;-61
2023/05/07 03:35:14;;;;;;;8.50;1.70;;;;;;;8.24;89.65;100775.40;110711;1269;22218;-61
2023/05/07 03:37:45;;;;;;;10.80;2.00;;;;;;;8.21;89.71;100779.06;107827;1272;22513;-60
2023/05/07 03:40:16;;;;;;;9.80;2.10;;;;;;;8.17;89.58;100776.10;106670;1269;22521;-60
2023/05/07 03:42:47;;;;;;;9.80;2.00;;;;;;;8.13;89.69;100777.82;110723;1256;22173;-60
2023/05/07 03:45:18;;;;;;;6.90;1.60;;;;;;;8.12;89.81;100774.22;110758;1272;22201;-60
2023/05/07 03:47:49;;;;;;;9.40;1.50;;;;;;;8.11;89.76;100775.51;110797;1256;22227;-61
2023/05/07 03:50:20;;;;;;;6.90;1.40;;;;;;;8.10;89.73;100782.15;110799;1265;22893;-60
2023/05/07 03:52:51;;;;;;;7.20;1.80;;;;;;;8.08;89.77;100786.17;110689;1259;22612;-61
2023/05/07 03:55:22;;;;;;;9.50;1.70;;;;;;;8.07;89.82;100784.30;110754;1260;22185;-61
2023/05/07 03:57:53;;;;;;;5.50;1.60;;;;;;;8.06;89.72;100790.86;110741;1263;22368;-61
2023/05/07 04:00:24;;;;;;;7.60;1.70;;;;;;;8.07;89.71;100790.98;110768;1266;22220;-61
2023/05/07 04:02:55;;;;;;;7.10;1.50;;;;;;;8.07;89.64;100799.25;110732;1268;22179;-60
2023/05/07 04:05:26;;;;;;;6.40;1.60;;;;;;;8.06;89.57;100801.27;110792;1256;22972;-60
2023/05/07 04:07:59;;;;;;;5.80;1.70;;;;;;;8.07;89.55;100804.17;110799;1266;22252;-60
2023/05/07 04:10:30;;;;;;;8.30;1.70;;;;;;;8.08;89.58;100808.13;110742;1266;23393;-60
2023/05/07 04:13:01;;;;;;;4.90;1.30;;;;;;;8.10;89.65;100812.67;110675;1265;22229;-60
2023/05/07 04:15:32;;;;;;;6.90;1.50;;;;;;;8.09;89.58;100814.11;110678;1271;22351;-60
2023/05/07 04:18:02;;;;;;;6.20;1.20;;;;;;;8.09;89.46;100814.57;110682;1266;22205;-60
2023/05/07 04:20:36;;;;;;;7.80;1.50;;;;;;;8.08;89.34;100824.73;110747;1266;22305;-60
2023/05/07 04:23:07;;;;;;;9.90;1.50;;;;;;;8.08;89.51;100824.23;110806;1256;22202;-60
2023/05/07 04:25:38;;;;;;;5.60;1.30;;;;;;;8.11;89.48;100827.65;110758;1262;22191;-60
2023/05/07 04:28:09;;;;;;;5.30;1.40;;;;;;;8.10;89.37;100827.91;110669;1264;22161;-61
2023/05/07 04:30:41;;;;;;;5.70;1.50;;;;;;;8.09;89.51;100830.79;110739;1266;22355;-60
2023/05/07 04:33:12;;;;;;;7.00;1.60;;;;;;;8.10;89.42;100835.39;110763;1272;22181;-60
2023/05/07 04:35:42;;;;;;;8.40;1.70;;;;;;;8.12;89.46;100838.49;110747;1260;22388;-60
2023/05/07 04:38:13;;;;;;;7.40;2.10;;;;;;;8.14;89.41;100842.55;110751;1265;22765;-61
2023/05/07 04:40:44;;;;;;;4.80;1.40;;;;;;;8.14;89.30;100842.64;110684;1261;22189;-60
2023/05/07 04:43:15;;;;;;;4.90;1.30;;;;;;;8.12;89.17;100849.13;110689;1266;22468;-60
2023/05/07 04:45:46;;;;;;;6.80;1.90;;;;;;;8.11;89.22;100850.34;108118;1257;22532;-59
2023/05/07 04:48:19;;;;;;;5.00;1.30;;;;;;;8.12;89.35;100849.84;106721;1266;22516;-60
2023/05/07 04:50:51;;;;;;;9.50;1.60;;;;;;;8.16;89.36;100846.55;106700;1265;24380;-59
2023/05/07 04:53:22;;;;;;;6.30;1.60;;;;;;;8.21;89.28;100856.30;110730;1266;22377;-60
2023/05/07 04:55:57;;;;;;;8.00;1.80;;;;;;;8.21;89.10;100857.03;107075;1266;24376;-60
2023/05/07 04:58:31;;;;;;;4.80;1.40;;;;;;;8.19;88.98;100859.29;110688;1261;22232;-60
2023/05/07 05:01:02;;;;;;;5.30;1.40;;;;;;;8.19;89.00;100861.52;110722;1265;22250;-60
2023/05/07 05:03:32;;;;;;;7.00;1.70;;;;;;;8.17;88.88;100865.40;110772;1266;22463;-60
2023/05/07 05:06:04;;;;;;;7.50;1.90;;;;;;;8.19;88.95;100868.91;110771;1272;22367;-60
2023/05/07 05:08:35;;;;;;;7.50;1.80;;;;;;;8.21;89.13;100871.02;110794;1260;23263;-60
2023/05/07 05:11:06;;;;;;;7.90;1.70;;;;;;;8.24;88.99;100875.54;110740;1259;22224;-60
2023/05/07 05:13:37;;;;;;;8.30;2.10;;;;;;;8.24;89.07;100882.36;110664;1266;22425;-60
2023/05/07 05:16:08;;;;;;;6.50;1.90;;;;;;;8.24;88.84;100880.69;110680;1266;22982;-61
2023/05/07 05:18:39;;;;;;;6.20;1.70;;;;;;;8.24;88.79;100884.44;110754;1257;22319;-64
2023/05/07 05:21:10;;;;;;;8.30;2.10;;;;;;;8.22;88.71;100887.44;110772;1269;23245;-65
2023/05/07 05:23:41;;;;;;;10.20;2.10;;;;;;;8.22;88.89;100891.33;110771;1268;22259;-60
2023/05/07 05:26:12;;;;;;;7.40;2.10;;;;;;;8.21;88.81;100892.16;110788;1256;22836;-60
2023/05/07 05:28:43;;;;;;;6.50;2.40;;;;;;;8.22;88.82;100898.63;110722;1266;22971;-60
2023/05/07 05:31:14;;;;;;;8.50;2.40;;;;;;;8.23;88.81;100901.55;110636;1265;23170;-61
2023/05/07 05:33:44;;;;;;;6.20;1.40;;;;;;;8.24;88.54;100902.70;110674;1264;23117;-61
2023/05/07 05:36:15;;;;;;;7.70;2.20;;;;;;;8.24;88.23;100906.59;110747;1265;22391;-61
2023/05/07 05:38:46;;;;;;;9.60;2.30;;;;;;;8.26;88.47;100907.27;110700;1266;22383;-61
2023/05/07 05:41:17;;;;;;;8.60;2.70;;;;;;;8.32;88.59;100906.23;110761;1256;22315;-61
2023/05/07 05:43:49;;;;;;;6.60;1.80;;;;;;;8.36;88.71;100903.30;110760;1266;22295;-61
2023/05/07 05:46:20;;;;;;;11.00;2.50;;;;;;;8.38;88.40;100904.34;110770;1266;22928;-61
2023/05/07 05:48:52;;;;;;;6.50;1.50;;;;;;;8.40;88.26;100900.98;110764;1260;22169;-62
2023/05/07 05:51:23;;;;;;;6.00;1.80;;;;;;;8.45;88.23;100904.82;107186;1269;22511;-60
2023/05/07 05:53:54;;;;;;;7.10;2.20;;;;;;;8.49;88.29;100903.89;106807;1262;22508;-60
2023/05/07 05:56:25;;;;;;;5.00;1.80;;;;;;;8.48;87.73;100905.90;106738;1269;22514;-60
2023/05/07 05:58:56;;;;;;;10.90;2.20;;;;;;;8.44;87.52;100908.02;106705;1256;25417;-60
2023/05/07 06:01:27;;;;;;;6.20;1.80;;;;;;;8.41;87.32;100910.83;106782;1272;22511;-60
2023/05/07 06:03:58;;;;;;;5.30;1.30;;;;;;;8.40;87.47;100915.09;106616;1256;22511;-60
2023/05/07 06:06:30;;;;;;;5.60;1.80;;;;;;;8.38;87.07;100913.96;106726;1266;25542;-61
2023/05/07 06:09:01;;;;;;;4.90;1.40;;;;;;;8.39;87.37;100918.36;106711;1256;22529;-61
2023/05/07 06:11:33;;;;;;;5.30;1.50;;;;;;;8.40;87.19;100921.34;106768;1263;23023;-60
2023/05/07 06:14:04;;;;;;;5.50;1.30;;;;;;;8.42;87.09;100915.80;106796;1266;22531;-61
2023/05/07 06:16:35;;;;;;;6.30;1.30;;;;;;;8.45;86.82;100917.30;106616;1256;22535;-61
2023/05/07 06:19:06;;;;;;;4.20;1.10;;;;;;;8.46;86.44;100915.02;106646;1253;24385;-61
2023/05/07 06:21:37;;;;;;;4.30;1.10;;;;;;;8.48;86.53;100915.61;106610;1266;22514;-61
2023/05/07 06:24:09;;;;;;;7.30;1.40;;;;;;;8.51;86.34;100921.79;110688;1264;22244;-61
2023/05/07 06:26:41;;;;;;;6.10;1.50;;;;;;;8.53;86.27;100926.90;110698;1265;22174;-61
2023/05/07 06:29:11;;;;;;;5.00;1.60;;;;;;;8.56;86.44;100933.40;110730;1261;22134;-62
2023/05/07 06:31:42;;;;;;;5.60;1.40;;;;;;;8.51;86.32;100932.02;110699;1257;22243;-61
2023/05/07 06:34:14;;;;;;;7.60;2.10;;;;;;;8.51;86.67;100936.66;110718;1269;22386;-62
2023/05/07 06:36:46;;;;;;;8.50;2.30;;;;;;;8.53;86.70;100942.34;110676;1257;22361;-61
2023/05/07 06:39:17;;;;;;;10.00;2.10;;;;;;;8.54;86.33;100947.30;110394;1272;437277;-61
2023/05/07 06:41:48;;;;;;;5.20;1.40;;;;;;;8.48;85.61;100953.52;110691;1256;22465;-62
2023/05/07 06:44:19;;;;;;;5.80;1.30;;;;;;;8.43;85.39;100954.35;110719;1266;22181;-61
2023/05/07 06:46:49;;;;;;;7.20;1.50;;;;;;;8.40;85.63;100952.46;110718;1256;22175;-61
2023/05/07 06:49:20;;;;;;;4.70;1.40;;;;;;;8.40;85.64;100955.71;110680;1266;22249;-61
2023/05/07 06:51:52;;;;;;;5.70;1.30;;;;;;;8.39;85.30;100962.31;110628;1258;22163;-62
2023/05/07 06:54:23;;;;;;;5.40;1.70;;;;;;;8.38;85.30;100966.64;110747;1272;23366;-61
2023/05/07 06:56:54;;;;;;;4.00;1.30;;;;;;;8.35;84.72;100964.70;110679;1261;22273;-62
2023/05/07 06:59:26;;;;;;;5.20;1.50;;;;;;;8.33;85.12;100968.89;110703;1261;22186;-62
2023/05/07 07:01:56;;;;;;;6.10;1.70;;;;;;;8.35;85.62;100973.59;110675;1269;22335;-61
2023/05/07 07:04:28;;;;;;;4.30;1.30;;;;;;;8.41;85.44;100971.73;110715;1257;22194;-61
2023/05/07 07:06:59;;;;;;;5.90;1.60;;;;;;;8.43;85.07;100971.81;110680;1261;22151;-62
2023/05/07 07:09:29;;;;;;;5.70;1.30;;;;;;;8.46;85.07;100971.39;110715;1272;23173;-61
2023/05/07 07:12:00;;;;;;;8.00;1.80;;;;;;;8.50;84.95;100976.83;110750;1266;22476;-62
2023/05/07 07:14:31;;;;;;;7.00;1.70;;;;;;;8.56;84.86;100978.55;110707;1268;22331;-62
2023/05/07 07:17:02;;;;;;;11.80;2.10;;;;;;;8.62;85.04;100975.95;109956;1258;22517;-61
2023/05/07 07:19:33;;;;;;;10.70;2.90;;;;;;;8.68;84.98;100976.55;106958;1269;25453;-61
2023/05/07 07:22:04;;;;;;;6.70;1.50;;;;;;;8.73;84.86;100981.71;110713;1257;22331;-61
2023/05/07 07:24:35;;;;;;;20.00;4.10;;;;;;;8.76;84.50;100984.95;110642;1256;22451;-61
2023/05/07 07:27:06;;;;;;;6.50;1.70;;;;;;;8.79;84.41;100987.30;110689;1266;22899;-61
2023/05/07 07:29:37;;;;;;;9.90;1.90;;;;;;;8.81;84.19;100988.67;110700;1266;22178;-62
2023/05/07 07:32:09;;;;;;;7.40;1.80;;;;;;;8.83;84.37;100993.86;110674;1263;22849;-62
2023/05/07 07:34:40;;;;;;;9.90;2.30;;;;;;;8.86;84.28;100994.64;110799;1261;22300;-62
2023/05/07 07:37:10;;;;;;;6.10;1.30;;;;;;;8.88;84.29;100997.13;110774;1266;22302;-62
2023/05/07 07:39:41;;;;;;;7.00;1.70;;;;;;;8.86;83.76;100998.08;110671;1256;23358;-61
2023/05/07 07:42:12;;;;;;;7.70;1.80;;;;;;;8.82;83.81;101000.48;110697;1258;22181;-63
2023/05/07 07:44:44;;;;;;;5.60;1.70;;;;;;;8.80;83.60;101004.95;110664;1266;22254;-61
2023/05/07 07:47:15;;;;;;;11.60;3.00;;;;;;;8.74;83.60;101010.95;110666;1266;22337;-61
2023/05/07 07:49:46;;;;;;;11.00;2.50;;;;;;;8.69;83.50;101020.04;107760;1260;23974;-60
2023/05/07 07:52:17;;;;;;;10.70;3.40;;;;;;;8.66;83.82;101029.20;110642;1265;22184;-61
2023/05/07 07:54:48;;;;;;;12.10;5.10;;;;;;;8.67;84.04;101034.48;110621;1266;22358;-61
2023/05/07 07:57:19;;;;;;;9.90;2.90;;;;;;;8.67;83.86;101039.56;110710;1269;22178;-61
2023/05/07 07:59:50;;;;;;;8.00;2.60;;;;;;;8.66;83.53;101042.15;110672;1257;22186;-61
2023/05/07 08:02:21;;;;;;;6.10;1.80;;;;;;;8.62;83.58;101044.42;110691;1260;22382;-61
2023/05/07 08:04:52;;;;;;;6.10;1.50;;;;;;;8.59;83.29;101039.69;110709;1266;22381;-62
2023/05/07 08:07:23;;;;;;;13.60;3.20;;;;;;;8.57;83.39;101036.08;110606;1266;22430;-58
2023/05/07 08:09:54;;;;;;;8.10;1.70;;;;;;;8.60;83.42;101040.45;108425;1257;24271;-58
2023/05/07 08:12:25;;;;;;;28.00;11.30;;;;;;;8.59;82.83;101038.02;106588;1269;24251;-58
2023/05/07 08:14:57;;;;;;;42.60;23.30;;;;;;;8.59;82.88;101038.55;110646;1266;22339;-59
2023/05/07 08:17:28;;;;;;;81.80;43.00;;;;;;;8.61;82.77;101037.64;110670;1264;22123;-56
2023/05/07 08:20:00;;;;;;;115.70;55.90;;;;;;;8.64;82.86;101040.71;110619;1266;22377;-58
2023/05/07 08:22:32;;;;;;;115.80;55.60;;;;;;;8.67;82.93;101039.98;110643;1261;22489;-58
2023/05/07 08:25:03;;;;;;;46.90;20.10;;;;;;;8.70;82.88;101043.19;110682;1266;22226;-57
2023/05/07 08:27:34;;;;;;;15.90;5.30;;;;;;;8.72;82.51;101043.48;110699;1266;22254;-57
2023/05/07 08:30:06;;;;;;;11.70;3.90;;;;;;;8.67;82.10;101049.37;110640;1266;22195;-58
2023/05/07 08:32:37;;;;;;;33.40;17.60;;;;;;;8.65;82.42;101050.16;108849;1259;22544;-57
2023/05/07 08:35:10;;;;;;;24.50;11.10;;;;;;;8.66;82.79;101049.55;106687;1262;25483;-59
2023/05/07 08:37:42;;;;;;;14.10;5.50;;;;;;;8.68;82.89;101052.57;107808;1264;22642;-59
2023/05/07 08:40:13;;;;;;;11.10;3.60;;;;;;;8.68;82.75;101058.63;106728;1269;25340;-58
2023/05/07 08:42:47;;;;;;;10.30;3.00;;;;;;;8.69;82.71;101060.84;106626;1266;25521;-57
2023/05/07 08:45:20;;;;;;;9.30;3.00;;;;;;;8.68;82.77;101069.61;106688;1266;24269;-59
2023/05/07 08:47:59;;;;;;;10.10;3.60;;;;;;;8.68;82.64;101069.70;106801;1271;24059;-58
2023/05/07 08:50:30;;;;;;;11.60;3.20;;;;;;;8.68;82.71;101072.87;106622;1264;22566;-59
2023/05/07 08:53:01;;;;;;;11.20;3.20;;;;;;;8.67;82.16;101080.78;106744;1269;24200;-58
2023/05/07 08:55:33;;;;;;;12.60;3.70;;;;;;;8.64;82.36;101078.16;106792;1253;22659;-59
2023/05/07 08:58:04;;;;;;;14.80;3.80;;;;;;;8.64;82.32;101078.08;106678;1269;22540;-59
2023/05/07 09:00:37;;;;;;;10.90;3.60;;;;;;;8.67;82.45;101081.96;109479;1260;22589;-59
2023/05/07 09:03:08;;;;;;;8.70;3.00;;;;;;;8.69;82.13;101086.36;110686;1261;22631;-59
2023/05/07 09:05:38;;;;;;;11.30;3.10;;;;;;;8.68;81.95;101083.53;107733;1257;25966;-57
2023/05/07 09:08:10;;;;;;;8.60;2.30;;;;;;;8.71;82.03;101091.33;106617;1266;24241;-58
2023/05/07 09:10:41;;;;;;;10.00;2.70;;;;;;;8.73;81.82;101085.60;110729;1268;22216;-59
2023/05/07 09:13:14;;;;;;;7.80;1.90;;;;;;;8.76;81.65;101089.48;108449;1268;25499;-57
2023/05/07 09:15:45;;;;;;;7.80;1.80;;;;;;;8.77;81.31;101090.96;106811;1263;25388;-54
2023/05/07 09:18:16;;;;;;;6.90;2.30;;;;;;;8.77;81.53;101088.48;106889;1269;25072;-57
2023/05/07 09:20:47;;;;;;;6.90;2.10;;;;;;;8.82;81.85;101089.05;106672;1269;22519;-59
2023/05/07 09:23:18;;;;;;;8.80;2.40;;;;;;;8.90;81.77;101090.77;106737;1260;22507;-58
2023/05/07 09:25:49;;;;;;;7.00;2.30;;;;;;;8.93;81.43;101089.54;106836;1257;24408;-58
2023/05/07 09:28:20;;;;;;;8.10;2.30;;;;;;;8.99;81.33;101088.27;110769;1266;22415;-59
2023/05/07 09:30:51;;;;;;;10.30;2.80;;;;;;;8.99;80.88;101089.60;110752;1264;22226;-59
2023/05/07 09:33:22;;;;;;;7.30;2.00;;;;;;;8.98;81.11;101098.08;108258;1267;22510;-59
2023/05/07 09:35:55;;;;;;;8.10;2.30;;;;;;;8.97;80.85;101092.86;106504;1256;25395;-59
2023/05/07 09:38:28;;;;;;;9.00;2.60;;;;;;;8.94;80.90;101094.75;106695;1257;25633;-59
2023/05/07 09:41:07;;;;;;;9.30;2.20;;;;;;;8.95;80.95;101094.19;106746;1266;24239;-58
2023/05/07 09:43:39;;;;;;;9.10;2.60;;;;;;;8.95;80.58;101096.18;110708;1263;22246;-59
2023/05/07 09:46:14;;;;;;;7.10;2.70;;;;;;;8.95;80.80;101093.64;106696;1257;22519;-59
2023/05/07 09:48:46;;;;;;;11.90;3.20;;;;;;;9.00;81.13;101091.00;106538;1256;22525;-59
2023/05/07 09:51:27;;;;;;;8.30;2.40;;;;;;;9.13;81.06;101087.08;110746;1263;22331;-60
2023/05/07 09:54:00;;;;;;;6.80;2.00;;;;;;;9.25;80.75;101080.06;110746;1268;22234;-59
2023/05/07 09:56:35;;;;;;;7.20;1.90;;;;;;;9.35;80.34;101083.72;109217;1259;22515;-58
2023/05/07 09:59:06;;;;;;;7.60;2.40;;;;;;;9.40;79.57;101086.71;110768;1268;22241;-59
2023/05/07 10:01:39;;;;;;;7.70;2.10;;;;;;;9.41;78.90;101086.66;108106;1269;22662;-57
2023/05/07 10:04:11;;;;;;;9.40;2.80;;;;;;;9.44;79.41;101085.23;106861;1266;25324;-59
2023/05/07 10:06:43;;;;;;;7.60;1.90;;;;;;;9.52;79.17;101091.45;110803;1263;22444;-60
2023/05/07 10:09:16;;;;;;;8.60;2.00;;;;;;;9.59;79.26;101095.20;108175;1271;24259;-58
2023/05/07 10:11:49;;;;;;;6.70;1.80;;;;;;;9.66;79.16;101097.72;107092;1257;24241;-59
2023/05/07 10:14:22;;;;;;;8.50;2.00;;;;;;;9.71;78.33;101100.52;107014;1264;25472;-58
2023/05/07 10:16:54;;;;;;;9.30;2.50;;;;;;;9.75;78.95;101099.55;108988;1248;24206;-56
2023/05/07 10:19:26;;;;;;;9.80;2.70;;;;;;;9.90;79.33;101098.80;107064;1264;22582;-58
2023/05/07 10:22:00;;;;;;;6.90;2.00;;;;;;;10.03;79.07;101100.70;107030;1256;22765;-57
2023/05/07 10:24:36;;;;;;;12.50;2.20;;;;;;;10.10;78.00;101102.84;109235;1269;22644;-59
2023/05/07 10:27:11;;;;;;;6.90;1.90;;;;;;;10.14;78.04;101107.41;110849;1269;22255;-59
2023/05/07 10:29:57;;;;;;;7.50;1.70;;;;;;;10.17;77.57;101107.85;107234;1271;24246;-59
2023/05/07 10:32:40;;;;;;;6.10;1.80;;;;;;;10.18;77.72;101108.05;109329;1259;22522;-58
2023/05/07 10:35:15;;;;;;;6.70;1.60;;;;;;;10.21;77.62;101108.34;110821;1257;23153;-59
2023/05/07 10:37:47;;;;;;;7.30;1.70;;;;;;;10.20;77.36;101111.23;107270;1257;22567;-58
2023/05/07 10:40:20;;;;;;;5.60;1.60;;;;;;;10.13;76.27;101113.98;109617;1253;25155;-58
2023/05/07 10:42:59;;;;;;;7.50;2.00;;;;;;;10.04;76.64;101108.79;110814;1263;22230;-59
2023/05/07 10:45:30;;;;;;;8.80;2.00;;;;;;;9.98;76.27;101116.96;107625;1271;24365;-58
2023/05/07 10:48:12;;;;;;;6.30;2.00;;;;;;;9.97;76.97;101115.83;106818;1264;23737;-60
2023/05/07 10:50:44;;;;;;;7.80;2.00;;;;;;;9.99;76.85;101115.13;110782;1257;22843;-60
2023/05/07 10:53:28;;;;;;;8.60;2.10;;;;;;;10.02;76.97;101109.17;107874;1259;22540;-60
2023/05/07 10:56:28;;;;;;;6.00;1.70;;;;;;;10.09;77.17;101108.06;110065;1266;23025;-59
2023/05/07 10:59:43;;;;;;;6.90;1.70;;;;;;;10.20;76.88;101108.61;110836;1259;22178;-60
2023/05/07 11:02:15;;;;;;;9.30;2.10;;;;;;;10.30;76.66;101108.86;106716;1269;25361;-60
2023/05/07 11:04:46;;;;;;;6.10;1.70;;;;;;;10.41;76.79;101110.28;108717;1271;22523;-55
2023/05/07 11:07:31;;;;;;;9.50;2.10;;;;;;;10.50;76.26;101108.52;106755;1271;22510;-58
2023/05/07 11:10:04;;;;;;;6.00;1.60;;;;;;;10.54;76.20;101107.03;106920;1259;22515;-59
2023/05/07 11:12:55;;;;;;;8.10;2.20;;;;;;;10.57;76.01;101106.73;109085;1264;22518;-58
2023/05/07 11:15:47;;;;;;;7.60;1.80;;;;;;;10.55;75.84;101103.26;110833;1261;22236;-65
2023/05/07 11:18:19;;;;;;;6.70;1.70;;;;;;;10.52;75.81;101110.98;106864;1258;22522;-56
2023/05/07 11:20:59;;;;;;;6.00;1.80;;;;;;;10.48;75.75;101108.98;108608;1264;22619;-57
2023/05/07 11:24:10;;;;;;;7.50;1.60;;;;;;;10.51;75.28;101114.30;110827;1259;22347;-60
2023/05/07 11:26:51;;;;;;;6.40;2.10;;;;;;;10.59;75.40;101114.23;106742;1269;22564;-60
2023/05/07 11:29:23;;;;;;;6.90;1.60;;;;;;;10.66;75.33;101117.77;107706;1257;24249;-59
2023/05/07 11:31:55;;;;;;;6.40;1.50;;;;;;;10.70;74.80;101122.40;110167;1263;25353;-59
2023/05/07 11:34:27;;;;;;;5.80;1.40;;;;;;;10.70;73.96;101126.70;106796;1271;22527;-59
2023/05/07 11:36:59;;;;;;;6.20;1.60;;;;;;;10.63;73.54;101131.44;106679;1270;22513;-59
2023/05/07 11:39:33;;;;;;;10.00;2.60;;;;;;;10.60;74.25;101136.26;106645;1271;25501;-61
2023/05/07 11:42:04;;;;;;;6.50;1.80;;;;;;;10.62;74.53;101140.83;106896;1266;22543;-62
2023/05/07 11:44:45;;;;;;;7.50;2.00;;;;;;;10.62;74.20;101142.04;110799;1260;22160;-60